Time;durP1;ratioP1;P1;durP2;ratioP2;P2;SDS_P1;SDS_P2;PMS_P1;PMS_P2;Temp;Humidity;BMP_temperature;BMP_pressure;BME280_temperature;BME280_humidity;BME280_pressure;Samples;Min_cycle;Max_cycle;Signal;HPM_P1;HPM_P2
2023/12/20 00:00:00;;;;;;;16.38;2.80;;;5.70;99.90;;;;;;7369409;19;20792;-68
2023/12/20 00:02:26;;;;;;;17.83;2.97;;;5.70;99.90;;;;;;7364639;19;20029;-68
2023/12/20 00:04:52;;;;;;;12.88;2.72;;;5.70;99.90;;;;;;7365955;19;20022;-68
2023/12/20 00:07:19;;;;;;;11.93;2.80;;;5.80;99.90;;;;;;7369028;19;20429;-68
2023/12/20 00:09:46;;;;;;;14.45;2.67;;;5.70;99.90;;;;;;7364810;19;20951;-68
2023/12/20 00:12:12;;;;;;;12.23;2.67;;;5.80;99.90;;;;;;7369965;19;20146;-68
2023/12/20 00:14:38;;;;;;;13.40;3.17;;;5.80;99.90;;;;;;7368012;19;20019;-68
2023/12/20 00:17:04;;;;;;;11.93;2.33;;;5.60;99.90;;;;;;7370813;19;20018;-68
2023/12/20 00:19:30;;;;;;;11.65;2.35;;;5.70;99.90;;;;;;7364306;19;20015;-68
2023/12/20 00:22:00;;;;;;;15.93;2.97;;;5.60;99.90;;;;;;7366889;19;20018;-67
2023/12/20 00:24:26;;;;;;;17.70;2.53;;;5.60;99.90;;;;;;7366445;19;20014;-70
2023/12/20 00:26:52;;;;;;;16.67;2.47;;;5.50;99.90;;;;;;7364943;19;20029;-71
2023/12/20 00:29:18;;;;;;;14.25;2.88;;;5.50;99.90;;;;;;7370243;19;20033;-68
2023/12/20 00:31:45;;;;;;;14.68;2.65;;;5.40;99.90;;;;;;7365752;19;20019;-72
2023/12/20 00:34:14;;;;;;;10.25;2.47;;;5.30;99.90;;;;;;7372536;19;20018;-71
2023/12/20 00:36:40;;;;;;;13.20;2.53;;;5.40;99.90;;;;;;7365501;19;20514;-71
2023/12/20 00:39:09;;;;;;;10.90;2.63;;;5.30;99.90;;;;;;7369670;19;20014;-67
2023/12/20 00:41:35;;;;;;;17.85;3.15;;;5.30;99.90;;;;;;7368541;19;20023;-68
2023/12/20 00:44:01;;;;;;;15.75;3.22;;;5.20;99.90;;;;;;7365630;19;20025;-72
2023/12/20 00:46:28;;;;;;;13.93;2.58;;;5.20;99.90;;;;;;7366574;19;20014;-71
2023/12/20 00:49:14;;;;;;;19.42;4.05;;;5.10;99.90;;;;;;7369353;19;20029;-68
2023/12/20 00:51:40;;;;;;;13.43;2.75;;;5.10;99.90;;;;;;7368043;19;20041;-71
2023/12/20 00:54:28;;;;;;;27.25;3.50;;;5.10;99.90;;;;;;7369183;19;20796;-71
2023/12/20 00:56:55;;;;;;;19.77;2.92;;;5.20;99.90;;;;;;7364301;19;20042;-71
2023/12/20 00:59:21;;;;;;;18.95;3.38;;;5.10;99.90;;;;;;7363265;19;20017;-71
2023/12/20 01:01:48;;;;;;;13.20;3.08;;;5.10;99.90;;;;;;7365951;19;20023;-71
2023/12/20 01:04:14;;;;;;;16.45;3.28;;;5.20;99.90;;;;;;7377258;19;20019;-71
2023/12/20 01:06:44;;;;;;;20.70;3.97;;;5.30;99.90;;;;;;7373349;19;20010;-71
2023/12/20 01:09:11;;;;;;;11.80;3.05;;;5.30;99.90;;;;;;7373936;19;20022;-71
2023/12/20 01:11:38;;;;;;;17.23;3.17;;;5.20;99.90;;;;;;7375058;19;20015;-71
2023/12/20 01:14:04;;;;;;;15.07;3.10;;;5.20;99.90;;;;;;7367323;19;20362;-71
2023/12/20 01:16:50;;;;;;;13.07;2.85;;;5.30;99.90;;;;;;7372591;19;20037;-71
2023/12/20 01:19:17;;;;;;;18.63;3.42;;;5.40;99.90;;;;;;7372818;19;20021;-71
2023/12/20 01:21:44;;;;;;;15.23;2.85;;;5.50;99.90;;;;;;7376143;19;20051;-72
2023/12/20 01:24:10;;;;;;;18.33;3.72;;;5.30;99.90;;;;;;7367930;19;20018;-72
2023/12/20 01:26:40;;;;;;;22.00;3.40;;;5.30;99.90;;;;;;7375547;19;20018;-71
2023/12/20 01:29:06;;;;;;;21.52;3.28;;;5.40;99.90;;;;;;7377346;19;20033;-71
2023/12/20 01:31:32;;;;;;;21.33;3.40;;;5.50;99.90;;;;;;7371572;19;20101;-68
2023/12/20 01:33:59;;;;;;;27.65;4.22;;;5.40;99.90;;;;;;7368137;19;20014;-68
2023/12/20 01:36:25;;;;;;;18.60;3.65;;;5.40;99.90;;;;;;7366573;19;20047;-69
2023/12/20 01:38:52;;;;;;;16.33;3.13;;;5.50;99.90;;;;;;7373218;19;20608;-71
2023/12/20 01:41:18;;;;;;;15.55;3.55;;;5.50;99.90;;;;;;7374837;19;20108;-71
2023/12/20 01:43:45;;;;;;;14.07;2.78;;;5.40;99.90;;;;;;7368113;19;20014;-71
2023/12/20 01:46:12;;;;;;;17.27;3.00;;;5.40;99.90;;;;;;7368234;19;20014;-68
2023/12/20 01:48:38;;;;;;;23.35;3.78;;;5.50;99.90;;;;;;7370142;19;20802;-68
2023/12/20 01:51:05;;;;;;;16.33;3.20;;;5.50;99.90;;;;;;7374050;19;20022;-68
2023/12/20 01:53:32;;;;;;;23.38;3.75;;;5.50;99.90;;;;;;7375599;19;20042;-68
2023/12/20 01:55:59;;;;;;;20.27;3.70;;;5.40;99.90;;;;;;7373627;19;20016;-68
2023/12/20 01:58:26;;;;;;;13.55;3.40;;;5.60;99.90;;;;;;7372423;19;20049;-68
2023/12/20 02:00:53;;;;;;;15.75;3.47;;;5.60;99.90;;;;;;7372032;19;20024;-68
2023/12/20 02:03:20;;;;;;;21.83;3.30;;;5.60;99.90;;;;;;7375489;19;20023;-68
2023/12/20 02:05:47;;;;;;;23.63;4.35;;;5.70;99.90;;;;;;7374405;19;20028;-69
2023/12/20 02:08:14;;;;;;;27.42;4.25;;;5.80;99.90;;;;;;7373554;19;20019;-69
2023/12/20 02:10:42;;;;;;;15.00;3.83;;;5.80;99.90;;;;;;7368768;19;20086;-70
2023/12/20 02:13:08;;;;;;;16.35;3.03;;;5.80;99.90;;;;;;7373566;19;20018;-68
2023/12/20 02:15:36;;;;;;;15.55;3.00;;;5.80;99.90;;;;;;7371969;19;20054;-71
2023/12/20 02:18:04;;;;;;;15.45;2.92;;;5.80;99.90;;;;;;7377765;19;20027;-71
2023/12/20 02:20:30;;;;;;;18.02;3.63;;;5.80;99.90;;;;;;7372949;19;20110;-70
2023/12/20 02:22:57;;;;;;;21.85;3.60;;;5.80;99.90;;;;;;7375805;19;20512;-70
2023/12/20 02:25:23;;;;;;;22.15;3.53;;;5.90;99.90;;;;;;7374250;19;20018;-68
2023/12/20 02:27:50;;;;;;;24.10;3.08;;;5.90;99.90;;;;;;7376022;19;20048;-68
2023/12/20 02:30:16;;;;;;;20.58;3.70;;;5.90;99.90;;;;;;7373474;19;20026;-71
2023/12/20 02:32:43;;;;;;;20.00;3.83;;;5.90;99.90;;;;;;7377149;19;20025;-71
2023/12/20 02:35:09;;;;;;;20.90;3.88;;;5.90;99.90;;;;;;7372934;19;20481;-68
2023/12/20 02:37:35;;;;;;;26.15;3.85;;;5.80;99.90;;;;;;7376003;19;20029;-69
2023/12/20 02:40:22;;;;;;;12.85;3.15;;;5.80;99.90;;;;;;7372038;19;20026;-68
2023/12/20 02:42:48;;;;;;;28.88;3.83;;;5.90;99.90;;;;;;7372993;19;20061;-68
2023/12/20 02:45:14;;;;;;;14.77;4.07;;;5.80;99.90;;;;;;7374186;19;20018;-68
2023/12/20 02:47:41;;;;;;;20.35;3.40;;;5.80;99.90;;;;;;7372931;19;20024;-68
2023/12/20 02:50:08;;;;;;;23.00;3.75;;;5.80;99.90;;;;;;7373165;19;20663;-68
2023/12/20 02:52:34;;;;;;;25.60;4.40;;;5.80;99.90;;;;;;7374114;19;20018;-68
2023/12/20 02:55:00;;;;;;;20.85;3.92;;;5.80;99.90;;;;;;7373598;19;20808;-68
2023/12/20 02:57:27;;;;;;;21.60;4.63;;;5.90;99.90;;;;;;7370045;19;20514;-71
2023/12/20 02:59:53;;;;;;;21.77;4.40;;;5.90;99.90;;;;;;7375006;19;20094;-71
2023/12/20 03:02:19;;;;;;;15.68;3.70;;;6.00;99.90;;;;;;7375696;19;20026;-71
2023/12/20 03:04:46;;;;;;;23.48;4.43;;;6.00;99.90;;;;;;7375781;19;20018;-68
2023/12/20 03:07:12;;;;;;;23.35;3.90;;;6.00;99.90;;;;;;7372120;19;20031;-68
2023/12/20 03:09:38;;;;;;;24.75;4.65;;;6.00;99.90;;;;;;7373330;19;20019;-68
2023/12/20 03:12:05;;;;;;;26.30;3.55;;;6.00;99.90;;;;;;7371355;19;20006;-68
2023/12/20 03:14:32;;;;;;;22.48;4.25;;;6.10;99.90;;;;;;7372136;19;20351;-68
2023/12/20 03:16:58;;;;;;;24.02;4.47;;;6.10;99.90;;;;;;7371333;19;20029;-67
2023/12/20 03:19:44;;;;;;;25.95;4.93;;;6.00;99.90;;;;;;7372438;19;20051;-68
2023/12/20 03:22:10;;;;;;;23.92;4.63;;;6.10;99.90;;;;;;7371787;19;20022;-68
2023/12/20 03:24:37;;;;;;;30.00;4.45;;;6.00;99.90;;;;;;7371173;19;20026;-67
2023/12/20 03:27:05;;;;;;;22.08;4.57;;;6.00;99.90;;;;;;7370449;19;20029;-67
2023/12/20 03:29:32;;;;;;;22.80;4.47;;;5.90;99.90;;;;;;7371650;19;20597;-71
2023/12/20 03:31:58;;;;;;;22.80;4.57;;;5.90;99.90;;;;;;7369294;19;20022;-67
2023/12/20 03:34:24;;;;;;;23.98;5.22;;;5.90;99.90;;;;;;7367522;19;20029;-71
2023/12/20 03:36:50;;;;;;;26.05;5.22;;;5.90;99.90;;;;;;7371272;19;20018;-71
2023/12/20 03:39:16;;;;;;;28.77;4.72;;;5.90;99.90;;;;;;7370656;19;20035;-71
2023/12/20 03:41:42;;;;;;;24.27;4.07;;;5.90;99.90;;;;;;7372348;19;20032;-67
2023/12/20 03:44:09;;;;;;;21.83;4.13;;;5.90;99.90;;;;;;7370254;19;20636;-67
2023/12/20 03:46:35;;;;;;;24.02;4.82;;;5.80;99.90;;;;;;7373472;19;20014;-71
2023/12/20 03:49:01;;;;;;;31.42;5.35;;;5.80;99.90;;;;;;7375711;19;20365;-71
2023/12/20 03:51:27;;;;;;;25.70;4.53;;;5.90;99.90;;;;;;7371690;19;20022;-71
2023/12/20 03:53:53;;;;;;;29.67;5.30;;;5.80;99.90;;;;;;7370635;19;20029;-71
2023/12/20 03:56:20;;;;;;;30.02;5.07;;;5.80;99.90;;;;;;7368436;19;20033;-71
2023/12/20 03:58:49;;;;;;;21.50;4.20;;;5.80;99.90;;;;;;7368362;19;20106;-71
2023/12/20 04:01:15;;;;;;;21.30;4.28;;;5.90;99.90;;;;;;7370038;19;20619;-73
2023/12/20 04:03:41;;;;;;;25.23;4.68;;;5.90;99.90;;;;;;7375772;19;20015;-71
2023/12/20 04:06:07;;;;;;;34.03;4.90;;;5.90;99.90;;;;;;7368843;19;20018;-71
2023/12/20 04:08:34;;;;;;;30.90;5.05;;;5.90;99.90;;;;;;7376595;19;20014;-71
2023/12/20 04:11:00;;;;;;;32.22;6.75;;;6.00;99.90;;;;;;7372686;19;20030;-68
2023/12/20 04:13:27;;;;;;;28.48;5.57;;;6.00;99.90;;;;;;7374481;19;20153;-68
2023/12/20 04:15:53;;;;;;;31.80;5.60;;;6.10;99.90;;;;;;7367722;19;20099;-67
2023/12/20 04:18:20;;;;;;;31.90;5.72;;;6.10;99.90;;;;;;7370177;19;20017;-67
2023/12/20 04:20:46;;;;;;;26.98;5.00;;;6.10;99.90;;;;;;7368890;19;20018;-71
2023/12/20 04:23:13;;;;;;;37.85;5.68;;;6.10;99.90;;;;;;7369311;19;20048;-71
2023/12/20 04:25:39;;;;;;;38.38;6.15;;;6.10;99.90;;;;;;7371326;19;20775;-71
2023/12/20 04:28:05;;;;;;;33.67;5.18;;;6.10;99.90;;;;;;7366993;19;20022;-71
2023/12/20 04:30:32;;;;;;;30.23;5.07;;;6.20;99.90;;;;;;7369446;19;20025;-67
2023/12/20 04:32:58;;;;;;;29.75;5.82;;;6.10;99.90;;;;;;7367767;19;20026;-68
2023/12/20 04:35:24;;;;;;;31.80;6.20;;;6.20;99.90;;;;;;7365920;19;20040;-67
2023/12/20 04:37:51;;;;;;;29.23;6.85;;;6.20;99.90;;;;;;7369517;19;20039;-68
2023/12/20 04:40:20;;;;;;;30.60;5.43;;;6.20;99.90;;;;;;7367218;19;20019;-71
2023/12/20 04:42:47;;;;;;;24.60;4.80;;;6.10;99.90;;;;;;7368862;19;20049;-71
2023/12/20 04:45:15;;;;;;;21.73;4.50;;;6.10;99.90;;;;;;7368263;19;20609;-71
2023/12/20 04:47:46;;;;;;;23.52;5.28;;;6.20;99.90;;;;;;7368350;19;20019;-67
2023/12/20 04:50:13;;;;;;;31.73;5.35;;;6.20;99.90;;;;;;7367464;19;20371;-68
2023/12/20 04:52:39;;;;;;;27.73;5.32;;;6.20;99.90;;;;;;7368124;19;20035;-68
2023/12/20 04:55:06;;;;;;;34.30;6.28;;;6.20;99.90;;;;;;7365936;19;20018;-67
2023/12/20 04:57:32;;;;;;;28.30;6.43;;;6.30;99.90;;;;;;7366506;19;20466;-67
2023/12/20 04:59:59;;;;;;;32.35;6.28;;;6.30;99.90;;;;;;7361859;19;20022;-68
2023/12/20 05:02:25;;;;;;;26.00;5.72;;;6.20;99.90;;;;;;7366019;19;20041;-67
2023/12/20 05:04:51;;;;;;;27.52;5.25;;;6.20;99.90;;;;;;7365894;19;20015;-68
2023/12/20 05:07:17;;;;;;;26.60;5.65;;;6.20;99.90;;;;;;7370198;19;20030;-67
2023/12/20 05:09:43;;;;;;;31.10;6.70;;;6.30;99.90;;;;;;7367775;19;20022;-67
2023/12/20 05:12:10;;;;;;;28.42;5.35;;;6.30;99.90;;;;;;7365755;19;20965;-68
2023/12/20 05:14:37;;;;;;;27.40;5.47;;;6.30;99.90;;;;;;7366057;19;20710;-68
2023/12/20 05:17:03;;;;;;;28.95;5.53;;;6.40;99.90;;;;;;7365903;19;20022;-67
2023/12/20 05:19:30;;;;;;;23.27;4.63;;;6.40;99.90;;;;;;7363284;19;20026;-68
2023/12/20 05:21:56;;;;;;;29.92;5.38;;;6.50;99.90;;;;;;7367213;19;20066;-67
2023/12/20 05:24:24;;;;;;;28.75;6.55;;;6.50;99.90;;;;;;7367791;19;20645;-68
2023/12/20 05:26:50;;;;;;;27.20;5.50;;;6.50;99.90;;;;;;7369071;19;20019;-69
2023/12/20 05:29:17;;;;;;;25.75;5.20;;;6.60;99.90;;;;;;7362155;19;20023;-71
2023/12/20 05:31:43;;;;;;;33.80;6.07;;;6.60;99.90;;;;;;7372413;19;20026;-71
2023/12/20 05:34:09;;;;;;;33.15;5.80;;;6.60;99.90;;;;;;7363598;19;20093;-67
2023/12/20 05:36:38;;;;;;;34.40;5.22;;;6.60;99.90;;;;;;7375920;19;20015;-76
2023/12/20 05:39:05;;;;;;;36.03;5.70;;;6.60;99.90;;;;;;7369479;19;20032;-75
2023/12/20 05:41:31;;;;;;;23.70;5.57;;;6.70;99.90;;;;;;7371687;19;20064;-76
2023/12/20 05:44:17;;;;;;;26.38;5.88;;;6.70;99.90;;;;;;7374203;19;20372;-76
2023/12/20 05:46:44;;;;;;;31.05;6.00;;;6.60;99.90;;;;;;7370396;19;20014;-71
2023/12/20 05:49:10;;;;;;;33.13;5.82;;;6.70;99.90;;;;;;7370596;19;20034;-76
2023/12/20 05:51:37;;;;;;;18.05;4.72;;;6.70;99.90;;;;;;7379599;19;20035;-75
2023/12/20 05:54:04;;;;;;;20.25;4.70;;;6.70;99.90;;;;;;7378284;19;20120;-71
2023/12/20 05:56:31;;;;;;;31.00;6.40;;;6.80;99.90;;;;;;7371694;19;20389;-72
2023/12/20 05:58:58;;;;;;;30.67;6.55;;;6.80;99.90;;;;;;7374388;19;20019;-72
2023/12/20 06:01:25;;;;;;;25.00;5.45;;;6.80;99.90;;;;;;7372890;19;20056;-72
2023/12/20 06:03:51;;;;;;;28.52;5.18;;;6.80;99.90;;;;;;7374851;19;20015;-72
2023/12/20 06:06:17;;;;;;;35.13;6.63;;;6.80;99.90;;;;;;7371239;19;20026;-72
2023/12/20 06:08:44;;;;;;;21.08;4.93;;;6.80;99.90;;;;;;7378934;19;20026;-72
2023/12/20 06:11:10;;;;;;;27.70;5.93;;;6.80;99.90;;;;;;7373757;19;20081;-72
2023/12/20 06:13:37;;;;;;;25.25;6.05;;;6.90;99.90;;;;;;7371790;19;20728;-72
2023/12/20 06:16:07;;;;;;;24.52;4.95;;;6.90;99.90;;;;;;7371068;19;20067;-72
2023/12/20 06:18:33;;;;;;;30.00;5.55;;;6.90;99.90;;;;;;7376032;19;20645;-76
2023/12/20 06:20:59;;;;;;;27.75;5.25;;;6.90;99.90;;;;;;7378498;19;20042;-75
2023/12/20 06:23:27;;;;;;;23.40;5.45;;;6.90;99.90;;;;;;7376287;19;20477;-75
2023/12/20 06:25:54;;;;;;;27.75;5.18;;;7.00;99.90;;;;;;7377843;19;20021;-75
2023/12/20 06:28:20;;;;;;;26.33;5.22;;;6.90;99.90;;;;;;7380377;19;20070;-75
2023/12/20 06:30:49;;;;;;;33.78;6.45;;;7.00;99.90;;;;;;7381394;19;20015;-78
2023/12/20 06:33:15;;;;;;;28.27;5.50;;;7.00;99.90;;;;;;7382847;19;20014;-76
2023/12/20 06:35:41;;;;;;;27.80;4.90;;;7.00;99.90;;;;;;7389497;19;20011;-76
2023/12/20 06:38:09;;;;;;;19.85;4.13;;;7.00;99.90;;;;;;7385318;19;20102;-76
2023/12/20 06:40:35;;;;;;;20.80;5.22;;;7.00;99.90;;;;;;7375539;19;20405;-72
2023/12/20 06:43:22;;;;;;;22.77;4.63;;;7.00;99.90;;;;;;7376746;19;20011;-76
2023/12/20 06:45:48;;;;;;;26.85;5.53;;;7.00;99.90;;;;;;7380766;19;20014;-77
2023/12/20 06:48:15;;;;;;;29.25;5.53;;;7.00;99.90;;;;;;7383003;19;20026;-77
2023/12/20 06:50:41;;;;;;;20.10;4.38;;;7.00;99.90;;;;;;7385536;19;20018;-77
2023/12/20 06:53:08;;;;;;;27.02;5.30;;;7.00;99.90;;;;;;7377998;19;20022;-68
2023/12/20 06:55:37;;;;;;;20.88;5.70;;;7.10;99.90;;;;;;7375053;19;20018;-67
2023/12/20 06:58:04;;;;;;;30.70;5.80;;;7.00;99.90;;;;;;7372458;19;20014;-68
2023/12/20 07:00:31;;;;;;;28.95;5.15;;;7.10;99.90;;;;;;7369504;19;20018;-67
2023/12/20 07:02:57;;;;;;;29.20;4.68;;;7.10;99.90;;;;;;7371627;19;20017;-68
2023/12/20 07:05:23;;;;;;;25.83;5.13;;;7.10;99.90;;;;;;7380962;19;20868;-77
2023/12/20 07:07:49;;;;;;;21.13;4.75;;;7.10;99.90;;;;;;7379749;19;20025;-72
2023/12/20 07:10:15;;;;;;;29.85;5.20;;;7.10;99.90;;;;;;7374472;19;20014;-72
2023/12/20 07:12:42;;;;;;;22.92;5.22;;;7.10;99.90;;;;;;7378304;19;20022;-69
2023/12/20 07:15:09;;;;;;;23.67;5.45;;;7.10;99.90;;;;;;7381151;19;20015;-76
2023/12/20 07:17:37;;;;;;;24.17;6.03;;;7.10;99.90;;;;;;7384169;19;20056;-77
2023/12/20 07:20:06;;;;;;;25.08;5.10;;;7.10;99.90;;;;;;7384695;19;20006;-76
2023/12/20 07:22:33;;;;;;;32.22;6.18;;;7.10;99.90;;;;;;7385440;19;20026;-76
2023/12/20 07:25:00;;;;;;;24.85;5.45;;;7.10;99.90;;;;;;7380786;19;20011;-74
2023/12/20 07:27:26;;;;;;;22.52;5.90;;;7.10;99.90;;;;;;7379653;19;20014;-71
2023/12/20 07:29:53;;;;;;;26.85;5.25;;;7.20;99.90;;;;;;7382680;19;20027;-70
2023/12/20 07:32:19;;;;;;;25.08;5.97;;;7.20;99.90;;;;;;7372876;19;20022;-76
2023/12/20 07:34:45;;;;;;;26.20;4.45;;;7.20;99.90;;;;;;7385483;19;20006;-76
2023/12/20 07:37:13;;;;;;;27.85;5.90;;;7.20;99.90;;;;;;7380598;19;20034;-76
2023/12/20 07:39:42;;;;;;;30.52;6.07;;;7.30;99.90;;;;;;7377709;19;20794;-75
2023/12/20 07:42:09;;;;;;;20.20;5.15;;;7.30;99.90;;;;;;7386383;19;20805;-76
2023/12/20 07:44:38;;;;;;;22.58;5.15;;;7.30;99.90;;;;;;7386371;19;20049;-68
2023/12/20 07:47:04;;;;;;;23.35;4.90;;;7.30;99.90;;;;;;7368854;19;20062;-69
2023/12/20 07:49:31;;;;;;;23.35;5.30;;;7.30;99.90;;;;;;7373766;19;20045;-65
2023/12/20 07:51:58;;;;;;;31.30;6.25;;;7.30;99.90;;;;;;7369834;19;20034;-69
2023/12/20 07:54:24;;;;;;;28.40;5.88;;;7.30;99.90;;;;;;7376435;19;20022;-69
2023/12/20 07:56:50;;;;;;;30.67;5.18;;;7.30;99.90;;;;;;7377477;19;20504;-74
2023/12/20 07:59:16;;;;;;;23.98;5.22;;;7.40;99.90;;;;;;7381713;19;20031;-74
2023/12/20 08:01:43;;;;;;;21.85;4.63;;;7.40;99.90;;;;;;7395302;19;20031;-74
2023/12/20 08:04:10;;;;;;;19.67;5.10;;;7.40;99.90;;;;;;7387286;19;20018;-69
2023/12/20 08:06:36;;;;;;;28.42;4.80;;;7.50;99.90;;;;;;7375229;19;20049;-69
2023/12/20 08:09:02;;;;;;;27.67;6.50;;;7.50;99.90;;;;;;7373687;19;20127;-69
2023/12/20 08:11:49;;;;;;;25.35;5.32;;;7.50;99.90;;;;;;7371468;19;20011;-69
2023/12/20 08:14:15;;;;;;;28.73;5.95;;;7.50;99.90;;;;;;7370517;19;20034;-69
2023/12/20 08:16:42;;;;;;;29.92;4.75;;;7.60;99.90;;;;;;7373191;19;20022;-69
2023/12/20 08:19:09;;;;;;;26.88;6.30;;;7.50;99.90;;;;;;7372609;19;20508;-69
2023/12/20 08:21:35;;;;;;;28.95;5.35;;;7.60;99.90;;;;;;7371076;19;20014;-69
2023/12/20 08:24:01;;;;;;;26.15;5.68;;;7.60;99.90;;;;;;7367975;19;20018;-68
2023/12/20 08:26:27;;;;;;;25.00;4.90;;;7.60;99.90;;;;;;7370096;19;20029;-67
2023/12/20 08:28:54;;;;;;;25.10;5.82;;;7.60;99.90;;;;;;7368939;19;20037;-74
2023/12/20 08:31:21;;;;;;;19.25;4.43;;;7.70;99.90;;;;;;7368132;19;20034;-77
2023/12/20 08:33:49;;;;;;;22.95;4.68;;;7.70;99.90;;;;;;7371676;19;20021;-77
2023/12/20 08:36:17;;;;;;;26.90;5.90;;;7.80;99.90;;;;;;7372377;19;20080;-77
2023/12/20 08:38:43;;;;;;;25.50;5.57;;;7.90;99.90;;;;;;7371963;19;20476;-77
2023/12/20 08:41:10;;;;;;;27.55;5.43;;;8.00;99.90;;;;;;7371298;19;20094;-76
2023/12/20 08:43:39;;;;;;;25.23;6.30;;;8.10;99.90;;;;;;7376024;19;20815;-76
2023/12/20 08:46:05;;;;;;;28.35;6.38;;;8.10;99.90;;;;;;7373124;19;20048;-69
2023/12/20 08:48:32;;;;;;;25.35;6.53;;;8.10;99.90;;;;;;7373674;19;20014;-69
2023/12/20 08:51:01;;;;;;;27.20;5.05;;;8.10;99.90;;;;;;7370091;19;20037;-77
2023/12/20 08:53:27;;;;;;;27.83;6.28;;;8.10;99.90;;;;;;7376521;19;20019;-76
2023/12/20 08:56:01;;;;;;;19.02;4.57;;;8.10;99.90;;;;;;7372648;19;20011;-72
2023/12/20 08:58:29;;;;;;;32.05;8.52;;;8.20;99.90;;;;;;7379562;19;20034;-77
2023/12/20 09:01:16;;;;;;;26.85;4.90;;;8.20;99.90;;;;;;7373602;19;20022;-70
2023/12/20 09:03:43;;;;;;;22.88;4.20;;;8.30;99.90;;;;;;7374736;19;20110;-69
2023/12/20 09:06:09;;;;;;;17.38;4.43;;;8.30;99.90;;;;;;7370906;19;20014;-70
2023/12/20 09:08:35;;;;;;;27.88;5.57;;;8.30;99.90;;;;;;7372215;19;20454;-69
2023/12/20 09:11:01;;;;;;;24.98;4.22;;;8.30;99.90;;;;;;7370904;19;20130;-69
2023/12/20 09:13:48;;;;;;;20.90;4.82;;;8.30;99.90;;;;;;7372815;19;20636;-69
2023/12/20 09:16:15;;;;;;;24.40;5.63;;;8.40;99.90;;;;;;7367446;19;20063;-69
2023/12/20 09:18:42;;;;;;;29.35;5.75;;;8.30;99.90;;;;;;7371100;19;20031;-70
2023/12/20 09:21:09;;;;;;;28.55;5.47;;;8.40;99.90;;;;;;7369337;19;21056;-69
2023/12/20 09:23:36;;;;;;;22.73;4.53;;;8.40;99.90;;;;;;7373580;19;20062;-69
2023/12/20 09:26:03;;;;;;;20.58;4.90;;;8.40;99.90;;;;;;7374546;19;20038;-65
2023/12/20 09:28:30;;;;;;;30.33;4.97;;;8.40;99.90;;;;;;7380458;19;20033;-67
2023/12/20 09:30:57;;;;;;;23.15;4.28;;;8.40;99.90;;;;;;7375618;19;20010;-76
2023/12/20 09:33:24;;;;;;;19.98;4.63;;;8.40;99.90;;;;;;7382263;19;20032;-76
2023/12/20 09:35:51;;;;;;;21.75;4.57;;;8.50;99.90;;;;;;7380567;19;20011;-75
2023/12/20 09:38:17;;;;;;;25.40;4.68;;;8.60;99.90;;;;;;7381044;19;20022;-75
2023/12/20 09:40:47;;;;;;;25.65;3.97;;;9.00;99.90;;;;;;7375121;19;20043;-67
2023/12/20 09:43:22;;;;;;;20.48;4.68;;;9.20;99.90;;;;;;7375559;19;20010;-68
2023/12/20 09:45:52;;;;;;;18.77;4.60;;;9.10;99.90;;;;;;7376977;19;20010;-67
2023/12/20 09:48:20;;;;;;;15.00;3.50;;;9.00;99.90;;;;;;7370717;19;20019;-67
2023/12/20 09:50:47;;;;;;;10.88;2.17;;;8.60;99.90;;;;;;7377111;19;20010;-68
2023/12/20 09:53:15;;;;;;;4.93;1.90;;;8.10;99.90;;;;;;7373825;19;20771;-68
2023/12/20 09:55:42;;;;;;;7.38;1.90;;;7.70;99.90;;;;;;7377017;19;20017;-68
2023/12/20 09:58:08;;;;;;;10.13;1.63;;;7.40;99.90;;;;;;7374136;19;20105;-68
2023/12/20 10:00:35;;;;;;;10.45;2.72;;;7.20;99.90;;;;;;7376119;19;20014;-68
2023/12/20 10:03:03;;;;;;;9.55;2.53;;;7.00;99.90;;;;;;7373197;19;20747;-69
2023/12/20 10:05:31;;;;;;;11.55;2.30;;;7.00;99.90;;;;;;7378861;19;20021;-68
2023/12/20 10:07:58;;;;;;;9.95;3.47;;;6.90;99.90;;;;;;7368074;19;20015;-68
2023/12/20 10:10:25;;;;;;;5.72;1.40;;;6.90;99.90;;;;;;7372298;19;20027;-65
2023/12/20 10:13:05;;;;;;;7.22;1.60;;;6.90;99.90;;;;;;7372698;19;20018;-69
2023/12/20 10:15:33;;;;;;;8.60;1.63;;;6.80;99.90;;;;;;7373753;19;20018;-69
2023/12/20 10:18:01;;;;;;;9.00;1.63;;;6.80;99.90;;;;;;7373407;19;20078;-69
2023/12/20 10:20:31;;;;;;;10.65;1.60;;;6.80;99.90;;;;;;7370486;19;20022;-69
2023/12/20 10:23:01;;;;;;;9.27;1.48;;;6.80;99.90;;;;;;7372448;19;20019;-69
2023/12/20 10:25:27;;;;;;;10.25;1.60;;;6.80;99.90;;;;;;7374682;19;20356;-76
2023/12/20 10:28:14;;;;;;;9.35;1.88;;;6.80;99.90;;;;;;7375152;19;20413;-76
2023/12/20 10:30:41;;;;;;;7.05;1.40;;;6.80;99.90;;;;;;7375240;19;20627;-76
2023/12/20 10:33:08;;;;;;;10.48;1.45;;;6.70;99.90;;;;;;7376422;19;20031;-76
2023/12/20 10:35:38;;;;;;;12.82;1.80;;;6.80;99.90;;;;;;7377365;19;20018;-76
2023/12/20 10:38:05;;;;;;;11.27;2.03;;;6.80;99.90;;;;;;7377139;19;20014;-76
2023/12/20 10:40:36;;;;;;;14.48;1.65;;;6.80;99.90;;;;;;7373562;19;20023;-68
2023/12/20 10:43:04;;;;;;;10.63;1.60;;;6.80;99.90;;;;;;7370888;19;20073;-68
2023/12/20 10:45:30;;;;;;;7.47;1.45;;;6.80;99.90;;;;;;7375265;19;20058;-69
2023/12/20 10:47:59;;;;;;;9.77;1.58;;;6.90;99.90;;;;;;7369225;19;20021;-69
2023/12/20 10:50:28;;;;;;;8.38;1.90;;;6.90;99.90;;;;;;7371364;19;20401;-69
2023/12/20 10:52:55;;;;;;;9.18;1.80;;;7.00;99.90;;;;;;7370855;19;20030;-69
2023/12/20 10:55:24;;;;;;;10.38;2.03;;;7.10;99.90;;;;;;7372876;19;20041;-69
2023/12/20 10:58:08;;;;;;;12.32;2.15;;;7.20;99.90;;;;;;7371313;19;20034;-68
2023/12/20 11:00:42;;;;;;;9.65;1.55;;;7.20;99.90;;;;;;7367969;19;20102;-68
2023/12/20 11:03:10;;;;;;;10.00;1.70;;;7.30;99.90;;;;;;7373316;19;20023;-68
2023/12/20 11:05:52;;;;;;;14.13;3.60;;;7.30;99.90;;;;;;7372855;19;20044;-68
2023/12/20 11:08:37;;;;;;;10.57;2.17;;;7.30;99.90;;;;;;7372668;19;20045;-68
2023/12/20 11:11:21;;;;;;;13.48;2.13;;;7.20;99.90;;;;;;7372842;19;20027;-69
2023/12/20 11:14:14;;;;;;;9.18;2.30;;;7.20;99.90;;;;;;7371512;19;20358;-68
2023/12/20 11:17:15;;;;;;;11.18;2.25;;;7.20;99.90;;;;;;7372642;19;20022;-69
2023/12/20 11:19:57;;;;;;;10.43;1.75;;;7.30;99.90;;;;;;7371833;19;20018;-69
2023/12/20 11:22:29;;;;;;;13.07;1.95;;;7.30;99.90;;;;;;7372012;19;20058;-68
2023/12/20 11:25:26;;;;;;;7.97;2.58;;;7.40;99.90;;;;;;7370481;19;20161;-69
2023/12/20 11:28:13;;;;;;;12.43;2.63;;;7.50;99.90;;;;;;7372977;19;20014;-69
2023/12/20 11:30:52;;;;;;;12.63;2.30;;;7.60;99.90;;;;;;7377180;19;20098;-76
2023/12/20 11:33:29;;;;;;;15.30;1.92;;;7.60;99.90;;;;;;7376327;19;20139;-76
2023/12/20 11:35:59;;;;;;;10.20;1.90;;;7.70;99.90;;;;;;7377874;19;20391;-76
2023/12/20 11:38:37;;;;;;;11.53;1.87;;;7.80;99.90;;;;;;7379142;19;20903;-76
2023/12/20 11:41:06;;;;;;;10.30;2.03;;;7.80;99.90;;;;;;7377294;19;20271;-75
2023/12/20 11:43:36;;;;;;;13.18;1.90;;;7.70;99.90;;;;;;7375748;19;20022;-76
2023/12/20 11:46:06;;;;;;;11.23;2.38;;;7.70;99.90;;;;;;7378404;19;20031;-74
2023/12/20 11:48:40;;;;;;;16.55;2.13;;;7.70;99.90;;;;;;7378238;19;20018;-77
2023/12/20 11:51:26;;;;;;;10.40;2.72;;;7.70;99.90;;;;;;7375356;19;20025;-76
2023/12/20 11:53:53;;;;;;;11.85;1.95;;;7.60;99.90;;;;;;7377546;19;20374;-76
2023/12/20 11:56:20;;;;;;;11.32;1.92;;;7.60;99.90;;;;;;7377093;19;20018;-74
2023/12/20 11:58:46;;;;;;;9.88;2.05;;;7.70;99.90;;;;;;7375510;19;20087;-76
2023/12/20 12:01:13;;;;;;;10.48;2.30;;;7.60;99.90;;;;;;7373363;19;20050;-75
2023/12/20 12:03:40;;;;;;;13.48;2.88;;;7.60;99.90;;;;;;7374079;19;20772;-75
2023/12/20 12:06:18;;;;;;;18.73;6.40;;;7.70;99.90;;;;;;7371100;19;20509;-72
2023/12/20 12:08:44;;;;;;;15.48;3.53;;;7.70;99.90;;;;;;7375948;19;20023;-68
2023/12/20 12:11:10;;;;;;;13.43;2.60;;;7.70;99.90;;;;;;7360770;19;20389;-69
2023/12/20 12:13:37;;;;;;;8.48;1.88;;;7.70;99.90;;;;;;7364772;19;20095;-69
2023/12/20 12:16:04;;;;;;;20.98;2.58;;;7.70;99.90;;;;;;7367920;19;20761;-69
2023/12/20 12:18:31;;;;;;;12.50;2.55;;;7.80;99.90;;;;;;7369664;19;20014;-69
2023/12/20 12:21:02;;;;;;;12.00;2.72;;;7.80;99.90;;;;;;7371233;19;20018;-69
2023/12/20 12:23:29;;;;;;;10.70;2.67;;;7.80;99.90;;;;;;7367759;19;20664;-69
2023/12/20 12:25:56;;;;;;;11.20;2.40;;;7.80;99.90;;;;;;7367967;19;20018;-69
2023/12/20 12:28:27;;;;;;;15.07;2.55;;;7.70;99.90;;;;;;7365403;19;20021;-62
2023/12/20 12:30:58;;;;;;;13.55;2.70;;;7.70;99.90;;;;;;7369613;19;20082;-63
2023/12/20 12:33:26;;;;;;;11.57;1.93;;;7.70;99.90;;;;;;7370607;19;20026;-63
2023/12/20 12:35:52;;;;;;;11.00;2.67;;;7.70;99.90;;;;;;7369572;19;20039;-69
2023/12/20 12:38:22;;;;;;;13.13;2.95;;;7.60;99.90;;;;;;7364333;19;20090;-67
2023/12/20 12:40:50;;;;;;;9.20;1.97;;;7.60;99.90;;;;;;7370947;19;20113;-69
2023/12/20 12:43:16;;;;;;;12.05;2.15;;;7.60;99.90;;;;;;7367369;19;20490;-69
2023/12/20 12:45:43;;;;;;;11.80;2.20;;;7.60;99.90;;;;;;7367588;19;20022;-69
2023/12/20 12:48:09;;;;;;;15.20;2.00;;;7.60;99.90;;;;;;7368940;19;20029;-69
2023/12/20 12:50:36;;;;;;;10.90;3.03;;;7.50;99.90;;;;;;7368208;19;20014;-62
2023/12/20 12:53:02;;;;;;;12.50;2.65;;;7.50;99.90;;;;;;7368576;19;20014;-62